BKPR

Priština International Airport

Prishtina, Kosovo
METAR BKPR 240500Z 36006KT 9999 BKN035 M02/M05 Q1031 NOSIG RMK 17010095
Observed Flight Rules
Jan-24 @ 05:00 UTC (40 minutes ago) Visual Flight Rules
Wind Visibility Clouds
360° at 6 knots 10,000+ meters
  • Broken at 3,500' AGL
Temperatures Readings
Current -2°C / 28°F
Dewpoint -5°C / 23°F
Humidity 80%
Altimeter 30.44" Hg
Pressure 1031 hPa
Elevation 576
METAR BKPR 240500Z 36006KT 9999 BKN035 M02/M05 Q1031 NOSIG RMK 17010095
Observed Flight Rules
Jan-24 @ 05:00 UTC
(40 minutes ago)
VFR
Wind Visibility
360° at 6 knots 10,000+ meters
Clouds
  • Broken at 3,500' AGL
Temperature Dewpoint
-2°C / 28°F -5°C / 23°F
Humidity Altimeter Pressure
80% 30.44" Hg 1031 hPa